CYQI

Yarmouth Airport

Yarmouth, , Canada
METAR CYQI 190700Z 34007KT 15SM SCT250 14/13 A2991 RMK CI4 SLP130
Observed Flight Rules
Jul-19 @ 07:00 UTC (27 minutes ago) Visual Flight Rules
Wind Visibility Clouds
340° at 7 knots 15 miles
  • Scattered at 25,000' AGL
Temperatures Readings
Current 14°C / 57°F
Dewpoint 13°C / 55°F
Humidity 94%
Altimeter 29.91" Hg
Pressure 1013 hPa
Elevation 43
METAR CYQI 190700Z 34007KT 15SM SCT250 14/13 A2991 RMK CI4 SLP130
Observed Flight Rules
Jul-19 @ 07:00 UTC
(27 minutes ago)
VFR
Wind Visibility
340° at 7 knots 15 miles
Clouds
  • Scattered at 25,000' AGL
Temperature Dewpoint
14°C / 57°F 13°C / 55°F
Humidity Altimeter Pressure
94% 29.91" Hg 1013 hPa